createdAt,value
2023-02-15T00:01:43.785Z,6.19
2023-02-15T00:04:10.925Z,6.18
2023-02-15T00:06:37.470Z,6.17
2023-02-15T00:09:04.353Z,6.08
2023-02-15T00:11:49.453Z,6.03
2023-02-15T00:14:21.156Z,6.04
2023-02-15T00:16:48.674Z,5.95
2023-02-15T00:19:17.036Z,5.95
2023-02-15T00:21:43.544Z,5.97
2023-02-15T00:24:11.943Z,6.03
2023-02-15T00:26:42.588Z,6.00
2023-02-15T00:29:09.854Z,6.02
2023-02-15T00:31:36.650Z,5.95
2023-02-15T00:34:13.626Z,5.89
2023-02-15T00:36:40.386Z,5.86
2023-02-15T00:39:06.957Z,5.83
2023-02-15T00:41:34.010Z,5.81
2023-02-15T00:44:00.528Z,5.81
2023-02-15T00:46:27.004Z,5.72
2023-02-15T00:48:53.430Z,5.68
2023-02-15T00:51:21.244Z,5.66
2023-02-15T00:53:47.784Z,5.69
2023-02-15T00:56:14.230Z,5.66
2023-02-15T00:58:40.669Z,5.72
2023-02-15T01:01:10.017Z,5.78
2023-02-15T01:03:36.661Z,5.82
2023-02-15T01:06:04.367Z,5.88
2023-02-15T01:08:31.131Z,5.90
2023-02-15T01:10:57.531Z,5.97
2023-02-15T01:13:24.113Z,6.03
2023-02-15T01:15:55.675Z,6.13
2023-02-15T01:18:22.952Z,6.19
2023-02-15T01:20:50.383Z,6.22
2023-02-15T01:23:16.956Z,6.30
2023-02-15T01:25:43.502Z,6.25
2023-02-15T01:28:09.931Z,6.36
2023-02-15T01:30:36.429Z,6.35
2023-02-15T01:33:03.234Z,6.35
2023-02-15T01:35:29.770Z,6.33
2023-02-15T01:37:56.864Z,6.29
2023-02-15T01:40:24.124Z,6.31
2023-02-15T01:42:54.773Z,6.22
2023-02-15T01:45:23.423Z,6.15
2023-02-15T01:47:54.476Z,6.00
2023-02-15T01:50:29.577Z,5.90
2023-02-15T01:53:04.960Z,5.84
2023-02-15T01:55:38.237Z,5.83
2023-02-15T01:58:05.064Z,5.86
2023-02-15T02:00:31.706Z,5.75
2023-02-15T02:02:58.552Z,5.70
2023-02-15T02:05:26.050Z,5.78
2023-02-15T02:07:53.616Z,5.70
2023-02-15T02:10:23.939Z,5.62
2023-02-15T02:12:52.513Z,5.64
2023-02-15T02:15:19.980Z,5.52
2023-02-15T02:17:56.210Z,5.54
2023-02-15T02:20:31.900Z,5.54
2023-02-15T02:23:08.269Z,5.58
2023-02-15T02:25:52.743Z,5.58
2023-02-15T02:28:56.253Z,5.55
2023-02-15T02:31:42.285Z,5.64
2023-02-15T02:34:20.973Z,5.58
2023-02-15T02:36:56.220Z,5.47
2023-02-15T02:39:38.953Z,5.44
2023-02-15T02:42:13.876Z,5.40
2023-02-15T02:44:44.612Z,5.34
2023-02-15T02:47:19.426Z,5.38
2023-02-15T02:49:46.488Z,5.38
2023-02-15T02:52:42.421Z,5.32
2023-02-15T02:55:11.763Z,5.37
2023-02-15T02:57:44.281Z,5.33
2023-02-15T03:00:11.344Z,5.31
2023-02-15T03:02:41.336Z,5.31
2023-02-15T03:05:10.380Z,5.22
2023-02-15T03:07:37.349Z,5.24
2023-02-15T03:10:06.208Z,5.23
2023-02-15T03:12:35.363Z,5.32
2023-02-15T03:15:04.732Z,5.36
2023-02-15T03:17:34.958Z,5.24
2023-02-15T03:20:08.015Z,5.20
2023-02-15T03:22:41.712Z,5.16
2023-02-15T03:25:12.353Z,5.17
2023-02-15T03:27:45.036Z,5.13
2023-02-15T03:30:13.417Z,5.17
2023-02-15T03:32:40.458Z,5.17
2023-02-15T03:35:07.981Z,4.99
2023-02-15T03:37:44.010Z,5.00
2023-02-15T03:40:42.840Z,5.05
2023-02-15T03:43:18.973Z,5.02
2023-02-15T03:45:55.969Z,4.95
2023-02-15T03:48:25.827Z,4.94
2023-02-15T03:51:13.376Z,4.99
2023-02-15T03:53:40.191Z,4.95
2023-02-15T03:56:06.600Z,4.90
2023-02-15T03:58:51.720Z,4.90
2023-02-15T04:01:46.951Z,4.91
2023-02-15T04:04:20.738Z,5.00
2023-02-15T04:06:47.321Z,4.98
2023-02-15T04:09:32.374Z,4.98
2023-02-15T04:11:58.821Z,4.93
2023-02-15T04:14:43.767Z,4.90
2023-02-15T04:17:10.470Z,4.90
2023-02-15T04:19:55.576Z,4.87
2023-02-15T04:22:40.875Z,4.85
2023-02-15T04:25:10.202Z,4.84
2023-02-15T04:27:37.191Z,4.84
2023-02-15T04:30:04.992Z,4.75
2023-02-15T04:32:31.441Z,4.72
2023-02-15T04:34:57.861Z,4.73
2023-02-15T04:37:24.281Z,4.70
2023-02-15T04:39:50.958Z,4.70
2023-02-15T04:42:17.487Z,4.67
2023-02-15T04:44:43.940Z,4.60
2023-02-15T04:47:10.390Z,4.65
2023-02-15T04:49:36.808Z,4.68
2023-02-15T04:52:03.233Z,4.68
2023-02-15T04:54:29.649Z,4.69
2023-02-15T04:56:56.088Z,4.67
2023-02-15T04:59:22.797Z,4.71
2023-02-15T05:01:49.357Z,4.68
2023-02-15T05:04:15.812Z,4.63
2023-02-15T05:06:42.535Z,4.55
2023-02-15T05:09:08.988Z,4.58
2023-02-15T05:11:35.445Z,4.58
2023-02-15T05:14:01.841Z,4.60
2023-02-15T05:16:28.880Z,4.59
2023-02-15T05:18:55.314Z,4.59
2023-02-15T05:21:21.838Z,4.55
2023-02-15T05:23:48.274Z,4.64
2023-02-15T05:26:37.413Z,4.62
2023-02-15T05:29:04.245Z,4.61
2023-02-15T05:31:31.749Z,4.63
2023-02-15T05:33:58.716Z,4.64
2023-02-15T05:36:25.188Z,4.65
2023-02-15T05:38:51.643Z,4.57
2023-02-15T05:41:18.187Z,4.53
2023-02-15T05:43:44.678Z,4.48
2023-02-15T05:46:11.659Z,4.42
2023-02-15T05:48:38.147Z,4.38
2023-02-15T05:51:06.917Z,4.31
2023-02-15T05:53:35.462Z,4.40
2023-02-15T05:56:03.550Z,4.48
2023-02-15T05:58:41.095Z,4.50
2023-02-15T06:01:14.967Z,4.43
2023-02-15T06:03:41.975Z,4.39
2023-02-15T06:06:08.982Z,4.34
2023-02-15T06:08:36.912Z,4.30
2023-02-15T06:11:03.739Z,4.29
2023-02-15T06:13:30.514Z,4.30
2023-02-15T06:15:56.974Z,4.28
2023-02-15T06:18:23.823Z,4.23
2023-02-15T06:20:50.424Z,4.21
2023-02-15T06:23:17.264Z,4.21
2023-02-15T06:25:44.458Z,4.17
2023-02-15T06:28:11.151Z,4.22
2023-02-15T06:30:37.718Z,4.20
2023-02-15T06:33:04.247Z,4.19
2023-02-15T06:35:30.784Z,4.14
2023-02-15T06:37:57.369Z,4.12
2023-02-15T06:40:23.910Z,4.12
2023-02-15T06:42:50.470Z,4.13
2023-02-15T06:45:16.895Z,4.25
2023-02-15T06:47:43.443Z,4.24
2023-02-15T06:50:10.441Z,4.20
2023-02-15T06:52:36.931Z,4.22
2023-02-15T06:55:03.877Z,4.20
2023-02-15T06:57:30.448Z,4.12
2023-02-15T06:59:57.919Z,4.15
2023-02-15T07:02:24.434Z,4.14
2023-02-15T07:04:50.857Z,4.21
2023-02-15T07:07:17.267Z,4.18
2023-02-15T07:09:43.783Z,4.15
2023-02-15T07:12:29.184Z,4.22
2023-02-15T07:14:55.612Z,4.21
2023-02-15T07:17:36.465Z,4.25
2023-02-15T07:20:08.807Z,4.33
2023-02-15T07:22:37.136Z,4.29
2023-02-15T07:25:08.236Z,4.38
2023-02-15T07:27:34.751Z,4.44
2023-02-15T07:30:01.772Z,4.38
2023-02-15T07:32:30.507Z,4.41
2023-02-15T07:34:57.026Z,4.47
2023-02-15T07:37:23.597Z,4.48
2023-02-15T07:39:50.052Z,4.54
2023-02-15T07:42:16.693Z,4.66
2023-02-15T07:44:43.103Z,4.73
2023-02-15T07:47:09.532Z,4.80
2023-02-15T07:49:35.947Z,4.75
2023-02-15T07:52:02.737Z,4.71
2023-02-15T07:54:29.236Z,4.75
2023-02-15T07:56:55.723Z,4.79
2023-02-15T07:59:22.165Z,4.84
2023-02-15T08:01:48.650Z,5.03
2023-02-15T08:04:15.128Z,5.08
2023-02-15T08:06:41.694Z,5.14
2023-02-15T08:09:09.754Z,5.11
2023-02-15T08:11:37.809Z,5.19
2023-02-15T08:14:05.807Z,5.25
2023-02-15T08:16:37.979Z,5.35
2023-02-15T08:19:17.337Z,5.38
2023-02-15T08:21:49.171Z,5.49
2023-02-15T08:24:17.713Z,5.63
2023-02-15T08:26:45.944Z,5.59
2023-02-15T08:29:12.412Z,5.54
2023-02-15T08:31:39.535Z,5.73
2023-02-15T08:34:06.459Z,5.90
2023-02-15T08:36:32.951Z,5.97
2023-02-15T08:39:00.674Z,6.05
2023-02-15T08:41:32.449Z,6.12
2023-02-15T08:44:00.644Z,6.22
2023-02-15T08:46:28.996Z,6.22
2023-02-15T08:48:55.668Z,6.32
2023-02-15T08:51:24.331Z,6.48
2023-02-15T08:53:52.962Z,6.56
2023-02-15T08:56:21.578Z,6.55
2023-02-15T08:58:48.063Z,6.61
2023-02-15T09:01:21.017Z,6.67
2023-02-15T09:03:54.391Z,6.77
2023-02-15T09:06:21.456Z,6.73
2023-02-15T09:08:47.879Z,6.71
2023-02-15T09:11:23.764Z,6.80
2023-02-15T09:14:01.263Z,6.82
2023-02-15T09:16:30.147Z,6.89
2023-02-15T09:18:58.531Z,7.07
2023-02-15T09:21:26.339Z,7.27
2023-02-15T09:23:58.224Z,7.45
2023-02-15T09:26:25.579Z,7.52
2023-02-15T09:28:54.388Z,7.70
2023-02-15T09:31:23.142Z,7.84
2023-02-15T09:33:50.539Z,7.95
2023-02-15T09:36:28.492Z,8.12
2023-02-15T09:38:59.389Z,8.19
2023-02-15T09:41:37.948Z,8.36
2023-02-15T09:44:35.757Z,8.44
2023-02-15T09:47:31.453Z,8.49
2023-02-15T09:50:26.890Z,8.62
2023-02-15T09:53:28.502Z,8.85
2023-02-15T09:56:17.258Z,8.90
2023-02-15T09:58:53.656Z,8.97
2023-02-15T10:01:48.109Z,9.10
2023-02-15T10:04:31.261Z,9.12
2023-02-15T10:07:07.467Z,9.31
2023-02-15T10:09:52.290Z,9.50
2023-02-15T10:12:32.362Z,9.64
2023-02-15T10:15:08.104Z,9.99
2023-02-15T10:17:54.738Z,10.16
2023-02-15T10:20:28.077Z,10.28
2023-02-15T10:23:25.587Z,10.44
2023-02-15T10:26:37.060Z,10.43
2023-02-15T10:29:17.784Z,10.60
2023-02-15T10:32:13.820Z,10.73
2023-02-15T10:34:57.381Z,10.87
2023-02-15T10:37:42.455Z,10.95
2023-02-15T10:40:11.941Z,11.07
2023-02-15T10:43:05.356Z,11.18
2023-02-15T10:45:57.866Z,11.27
2023-02-15T10:48:36.135Z,11.37
2023-02-15T10:51:05.157Z,11.51
2023-02-15T10:53:56.532Z,11.47
2023-02-15T10:56:31.823Z,11.61
2023-02-15T10:59:18.396Z,11.81
2023-02-15T11:01:49.623Z,11.91
2023-02-15T11:04:25.143Z,12.02
2023-02-15T11:06:57.479Z,12.10
2023-02-15T11:09:26.986Z,12.12
2023-02-15T11:11:55.197Z,12.32
2023-02-15T11:14:33.003Z,12.28
2023-02-15T11:17:04.174Z,12.21
2023-02-15T11:19:37.025Z,12.17
2023-02-15T11:22:05.785Z,12.33
2023-02-15T11:24:38.453Z,12.37
2023-02-15T11:27:13.939Z,12.46
2023-02-15T11:29:53.707Z,12.54
2023-02-15T11:32:29.429Z,12.67
2023-02-15T11:35:05.803Z,12.57
2023-02-15T11:37:36.871Z,12.73
2023-02-15T11:40:05.007Z,12.83
2023-02-15T11:42:32.731Z,12.95
2023-02-15T11:45:20.750Z,13.21
2023-02-15T11:47:47.169Z,13.07
2023-02-15T11:50:23.073Z,13.14
2023-02-15T11:52:53.920Z,13.15
2023-02-15T11:55:23.787Z,13.29
2023-02-15T11:57:56.693Z,13.23
2023-02-15T12:00:37.053Z,13.33
2023-02-15T12:03:10.908Z,13.51
2023-02-15T12:05:38.975Z,13.50
2023-02-15T12:08:13.440Z,13.54
2023-02-15T12:10:48.909Z,13.45
2023-02-15T12:13:18.630Z,13.41
2023-02-15T12:15:47.739Z,13.55
2023-02-15T12:18:40.064Z,13.51
2023-02-15T12:21:12.781Z,13.72
2023-02-15T12:23:50.069Z,13.80
2023-02-15T12:26:25.154Z,13.73
2023-02-15T12:28:53.261Z,13.90
2023-02-15T12:31:26.125Z,13.97
2023-02-15T12:33:55.142Z,14.00
2023-02-15T12:36:33.694Z,13.88
2023-02-15T12:39:12.592Z,13.99
2023-02-15T12:41:46.194Z,14.19
2023-02-15T12:44:21.961Z,14.23
2023-02-15T12:46:58.100Z,14.28
2023-02-15T12:49:25.147Z,14.35
2023-02-15T12:52:03.619Z,14.46
2023-02-15T12:54:35.619Z,14.43
2023-02-15T12:57:14.450Z,14.70
2023-02-15T13:00:19.735Z,14.72
2023-02-15T13:02:49.793Z,14.96
2023-02-15T13:05:36.712Z,15.08
2023-02-15T13:08:11.350Z,15.12
2023-02-15T13:11:01.419Z,15.13
2023-02-15T13:13:30.676Z,15.16
2023-02-15T13:16:04.046Z,15.09
2023-02-15T13:18:40.206Z,15.15
2023-02-15T13:21:19.770Z,15.24
2023-02-15T13:23:52.883Z,15.24
2023-02-15T13:26:21.701Z,15.26
2023-02-15T13:28:51.867Z,15.12
2023-02-15T13:31:26.834Z,15.14
2023-02-15T13:34:01.412Z,15.13
2023-02-15T13:36:42.562Z,14.98
2023-02-15T13:39:17.985Z,15.07
2023-02-15T13:41:54.375Z,15.01
2023-02-15T13:44:58.640Z,14.96
2023-02-15T13:47:40.600Z,14.89
2023-02-15T13:50:28.494Z,15.06
2023-02-15T13:53:18.884Z,14.98
2023-02-15T13:55:48.954Z,15.17
2023-02-15T13:58:26.664Z,15.22
2023-02-15T14:01:18.213Z,15.21
2023-02-15T14:04:08.977Z,15.35
2023-02-15T14:06:48.980Z,15.41
2023-02-15T14:09:19.659Z,15.38
2023-02-15T14:11:58.481Z,15.24
2023-02-15T14:14:36.854Z,15.26
2023-02-15T14:17:27.642Z,15.29
2023-02-15T14:19:59.331Z,15.45
2023-02-15T14:22:43.228Z,15.45
2023-02-15T14:25:19.330Z,15.25
2023-02-15T14:28:07.332Z,15.27
2023-02-15T14:30:38.040Z,15.34
2023-02-15T14:33:41.134Z,15.25
2023-02-15T14:36:09.831Z,15.18
2023-02-15T14:38:57.761Z,15.19
2023-02-15T14:41:51.356Z,15.08
2023-02-15T14:44:31.159Z,15.13
2023-02-15T14:47:32.357Z,15.09
2023-02-15T14:49:59.155Z,14.94
2023-02-15T14:52:26.014Z,14.88
2023-02-15T14:54:57.521Z,14.83
2023-02-15T14:57:25.975Z,14.81
2023-02-15T15:00:02.274Z,14.79
2023-02-15T15:02:41.315Z,14.97
2023-02-15T15:05:09.654Z,14.90
2023-02-15T15:07:46.739Z,14.73
2023-02-15T15:10:21.038Z,14.66
2023-02-15T15:12:49.071Z,14.61
2023-02-15T15:15:36.020Z,14.57
2023-02-15T15:18:07.856Z,14.47
2023-02-15T15:20:51.329Z,14.48
2023-02-15T15:23:27.568Z,14.50
2023-02-15T15:25:59.230Z,14.34
2023-02-15T15:28:35.110Z,14.20
2023-02-15T15:31:02.026Z,14.21
2023-02-15T15:33:50.768Z,14.18
2023-02-15T15:36:31.031Z,13.89
2023-02-15T15:39:36.679Z,13.82
2023-02-15T15:42:18.688Z,13.83
2023-02-15T15:45:24.444Z,13.69
2023-02-15T15:48:07.055Z,13.59
2023-02-15T15:50:34.912Z,13.47
2023-02-15T15:53:02.654Z,13.23
2023-02-15T15:55:32.520Z,13.24
2023-02-15T15:58:08.010Z,13.05
2023-02-15T16:00:43.804Z,13.02
2023-02-15T16:03:23.187Z,12.84
2023-02-15T16:05:55.330Z,12.75
2023-02-15T16:08:38.544Z,12.58
2023-02-15T16:11:15.711Z,12.46
2023-02-15T16:13:43.318Z,12.37
2023-02-15T16:16:10.562Z,12.28
2023-02-15T16:18:39.993Z,12.08
2023-02-15T16:21:06.506Z,12.14
2023-02-15T16:23:51.495Z,12.20
2023-02-15T16:26:30.398Z,12.12
2023-02-15T16:28:56.838Z,12.02
2023-02-15T16:31:24.058Z,12.04
2023-02-15T16:33:53.738Z,11.87
2023-02-15T16:36:28.804Z,11.81
2023-02-15T16:38:58.222Z,11.70
2023-02-15T16:41:28.236Z,11.62
2023-02-15T16:43:57.513Z,11.56
2023-02-15T16:46:26.899Z,11.46
2023-02-15T16:48:56.532Z,11.35
2023-02-15T16:51:27.592Z,11.28
2023-02-15T16:53:56.192Z,11.20
2023-02-15T16:56:31.350Z,11.06
2023-02-15T16:58:58.917Z,10.97
2023-02-15T17:01:29.079Z,10.87
2023-02-15T17:04:14.502Z,10.78
2023-02-15T17:06:40.971Z,10.76
2023-02-15T17:09:15.611Z,10.77
2023-02-15T17:11:44.000Z,10.65
2023-02-15T17:14:10.863Z,10.65
2023-02-15T17:16:42.439Z,10.75
2023-02-15T17:19:18.292Z,10.95
2023-02-15T17:21:57.031Z,10.93
2023-02-15T17:24:32.990Z,10.78
2023-02-15T17:27:03.705Z,10.68
2023-02-15T17:29:33.580Z,10.51
2023-02-15T17:32:00.595Z,10.34
2023-02-15T17:35:04.233Z,10.26
2023-02-15T17:37:36.837Z,10.17
2023-02-15T17:40:26.841Z,10.00
2023-02-15T17:42:57.472Z,9.93
2023-02-15T17:45:27.284Z,9.86
2023-02-15T17:47:53.931Z,9.95
2023-02-15T17:50:23.240Z,9.93
2023-02-15T17:52:50.522Z,9.87
2023-02-15T17:55:37.611Z,9.91
2023-02-15T17:58:06.716Z,9.85
2023-02-15T18:00:53.870Z,9.85
2023-02-15T18:03:39.114Z,9.80
2023-02-15T18:06:24.417Z,9.79
2023-02-15T18:09:11.584Z,10.08
2023-02-15T18:11:39.128Z,10.40
2023-02-15T18:14:10.070Z,10.30
2023-02-15T18:16:40.788Z,10.17
2023-02-15T18:19:10.667Z,10.11
2023-02-15T18:21:37.083Z,10.03
2023-02-15T18:24:03.638Z,9.86
2023-02-15T18:26:30.096Z,9.75
2023-02-15T18:28:56.486Z,9.75
2023-02-15T18:31:24.053Z,9.66
2023-02-15T18:33:54.284Z,9.68
2023-02-15T18:36:25.734Z,9.61
2023-02-15T18:38:53.473Z,9.55
2023-02-15T18:41:21.142Z,9.53
2023-02-15T18:43:48.938Z,9.49
2023-02-15T18:46:17.025Z,9.49
2023-02-15T18:48:44.041Z,9.54
2023-02-15T18:51:18.988Z,9.59
2023-02-15T18:53:46.598Z,9.56
2023-02-15T18:56:18.476Z,9.57
2023-02-15T18:58:49.252Z,9.51
2023-02-15T19:01:18.483Z,9.47
2023-02-15T19:03:49.435Z,9.68
2023-02-15T19:06:18.608Z,9.64
2023-02-15T19:08:47.090Z,9.54
2023-02-15T19:11:19.445Z,9.43
2023-02-15T19:13:48.752Z,9.39
2023-02-15T19:16:30.645Z,9.30
2023-02-15T19:18:57.557Z,9.28
2023-02-15T19:21:24.697Z,9.17
2023-02-15T19:23:56.908Z,9.15
2023-02-15T19:26:28.691Z,9.06
2023-02-15T19:29:00.914Z,9.05
2023-02-15T19:31:27.738Z,8.91
2023-02-15T19:33:54.331Z,8.95
2023-02-15T19:36:22.846Z,9.08
2023-02-15T19:38:51.502Z,8.93
2023-02-15T19:41:23.776Z,8.84
2023-02-15T19:43:55.117Z,8.91
2023-02-15T19:46:23.202Z,8.80
2023-02-15T19:48:53.695Z,8.82
2023-02-15T19:51:21.835Z,8.80
2023-02-15T19:53:49.199Z,8.81
2023-02-15T19:56:23.428Z,8.81
2023-02-15T19:58:52.042Z,8.66
2023-02-15T20:01:19.427Z,8.67
2023-02-15T20:03:45.845Z,8.58
2023-02-15T20:06:15.634Z,8.51
2023-02-15T20:08:42.574Z,8.40
2023-02-15T20:11:13.284Z,8.40
2023-02-15T20:13:40.522Z,8.38
2023-02-15T20:16:08.349Z,8.25
2023-02-15T20:18:35.179Z,8.16
2023-02-15T20:21:02.780Z,8.15
2023-02-15T20:23:32.378Z,8.24
2023-02-15T20:26:00.460Z,8.21
2023-02-15T20:28:29.510Z,8.26
2023-02-15T20:30:56.078Z,8.28
2023-02-15T20:33:23.100Z,8.38
2023-02-15T20:35:50.521Z,8.34
2023-02-15T20:38:25.461Z,8.40
2023-02-15T20:41:10.547Z,8.43
2023-02-15T20:43:37.139Z,8.36
2023-02-15T20:46:04.175Z,8.31
2023-02-15T20:48:30.941Z,8.21
2023-02-15T20:51:00.340Z,8.15
2023-02-15T20:53:28.307Z,8.13
2023-02-15T20:55:55.177Z,8.12
2023-02-15T20:58:29.608Z,8.12
2023-02-15T21:00:58.056Z,8.13
2023-02-15T21:03:31.114Z,8.07
2023-02-15T21:05:58.389Z,8.06
2023-02-15T21:08:25.092Z,8.14
2023-02-15T21:10:52.728Z,8.14
2023-02-15T21:13:27.968Z,8.21
2023-02-15T21:15:55.343Z,8.16
2023-02-15T21:18:24.260Z,8.21
2023-02-15T21:20:53.084Z,8.15
2023-02-15T21:23:29.391Z,8.17
2023-02-15T21:25:56.548Z,8.11
2023-02-15T21:28:25.295Z,8.04
2023-02-15T21:30:52.609Z,8.04
2023-02-15T21:33:19.370Z,8.08
2023-02-15T21:35:48.858Z,8.08
2023-02-15T21:38:17.272Z,8.12
2023-02-15T21:40:44.217Z,8.12
2023-02-15T21:43:33.666Z,8.12
2023-02-15T21:46:23.747Z,8.09
2023-02-15T21:48:50.181Z,8.04
2023-02-15T21:51:35.315Z,8.04
2023-02-15T21:54:01.746Z,7.98
2023-02-15T21:56:28.325Z,7.97
2023-02-15T21:58:54.866Z,8.00
2023-02-15T22:01:24.470Z,8.04
2023-02-15T22:03:51.121Z,8.05
2023-02-15T22:06:18.501Z,8.03
2023-02-15T22:08:45.292Z,8.03
2023-02-15T22:11:13.790Z,8.08
2023-02-15T22:13:41.090Z,8.10
2023-02-15T22:16:07.498Z,7.91
2023-02-15T22:18:34.404Z,7.83
2023-02-15T22:21:01.535Z,7.82
2023-02-15T22:23:28.194Z,7.89
2023-02-15T22:26:19.940Z,7.98
2023-02-15T22:28:46.364Z,8.07
2023-02-15T22:31:15.230Z,8.08
2023-02-15T22:33:41.959Z,8.02
2023-02-15T22:36:35.030Z,8.01
2023-02-15T22:39:01.552Z,8.10
2023-02-15T22:41:30.537Z,8.14
2023-02-15T22:43:57.162Z,8.16
2023-02-15T22:46:24.809Z,8.06
2023-02-15T22:48:52.154Z,7.62
2023-02-15T22:51:21.093Z,7.78
2023-02-15T22:53:49.697Z,7.82
2023-02-15T22:56:20.641Z,7.68
2023-02-15T22:58:49.513Z,7.40
2023-02-15T23:01:26.842Z,7.49
2023-02-15T23:03:53.321Z,7.54
2023-02-15T23:06:19.800Z,7.61
2023-02-15T23:08:46.349Z,7.65
2023-02-15T23:11:12.849Z,7.62
2023-02-15T23:13:39.478Z,7.51
2023-02-15T23:16:07.258Z,7.40
2023-02-15T23:18:41.440Z,7.29
2023-02-15T23:21:25.908Z,7.30
2023-02-15T23:23:54.986Z,7.40
2023-02-15T23:26:27.774Z,7.37
2023-02-15T23:28:55.944Z,7.41
2023-02-15T23:31:31.709Z,7.36
2023-02-15T23:33:59.914Z,7.19
2023-02-15T23:36:29.811Z,7.34
2023-02-15T23:38:58.573Z,7.04
2023-02-15T23:41:28.106Z,7.35
2023-02-15T23:44:03.420Z,7.37
2023-02-15T23:46:34.837Z,7.37
2023-02-15T23:49:01.249Z,7.30
2023-02-15T23:51:30.609Z,7.18
2023-02-15T23:53:57.743Z,7.19
2023-02-15T23:56:24.148Z,7.18
2023-02-15T23:58:50.812Z,7.18
